createdAt,value
2023-04-18T00:00:20.072Z,7.20
2023-04-18T00:03:16.083Z,6.80
2023-04-18T00:05:49.902Z,9.30
2023-04-18T00:08:21.917Z,7.60
2023-04-18T00:10:54.275Z,7.30
2023-04-18T00:13:28.569Z,6.80
2023-04-18T00:16:00.651Z,8.10
2023-04-18T00:18:32.590Z,7.20
2023-04-18T00:21:05.011Z,6.20
2023-04-18T00:23:37.331Z,5.50
2023-04-18T00:26:09.379Z,5.80
2023-04-18T00:28:41.886Z,6.50
2023-04-18T00:31:15.785Z,6.60
2023-04-18T00:33:47.755Z,7.20
2023-04-18T00:36:20.868Z,8.20
2023-04-18T00:38:52.785Z,6.40
2023-04-18T00:41:27.650Z,7.50
2023-04-18T00:43:59.668Z,8.30
2023-04-18T00:46:31.681Z,7.50
2023-04-18T00:49:03.692Z,7.00
2023-04-18T00:51:37.105Z,8.30
2023-04-18T00:54:13.693Z,6.90
2023-04-18T00:56:47.021Z,6.40
2023-04-18T00:59:21.828Z,7.60
2023-04-18T01:01:53.892Z,6.60
2023-04-18T01:04:26.524Z,6.40
2023-04-18T01:06:58.785Z,7.80
2023-04-18T01:09:31.310Z,6.40
2023-04-18T01:12:04.154Z,5.80
2023-04-18T01:14:36.244Z,6.20
2023-04-18T01:17:11.102Z,5.50
2023-04-18T01:19:43.174Z,5.30
2023-04-18T01:22:16.636Z,6.50
2023-04-18T01:24:48.614Z,5.40
2023-04-18T01:27:21.945Z,5.90
2023-04-18T01:29:53.893Z,6.20
2023-04-18T01:32:25.940Z,6.40
2023-04-18T01:34:58.003Z,5.50
2023-04-18T01:37:29.990Z,5.60
2023-04-18T01:40:02.316Z,5.80
2023-04-18T01:42:34.459Z,6.20
2023-04-18T01:45:08.777Z,5.10
2023-04-18T01:47:40.784Z,5.50
2023-04-18T01:50:15.970Z,6.30
2023-04-18T01:52:48.079Z,5.40
2023-04-18T01:55:21.605Z,5.00
2023-04-18T01:57:53.637Z,5.00
2023-04-18T02:00:26.133Z,4.60
2023-04-18T02:02:59.282Z,5.70
2023-04-18T02:05:31.570Z,5.50
2023-04-18T02:08:04.941Z,5.00
2023-04-18T02:10:37.237Z,4.20
2023-04-18T02:13:09.522Z,4.10
2023-04-18T02:15:41.570Z,4.60
2023-04-18T02:18:13.598Z,4.30
2023-04-18T02:20:45.739Z,5.10
2023-04-18T02:23:17.796Z,5.40
2023-04-18T02:25:50.888Z,4.30
2023-04-18T02:28:22.806Z,5.60
2023-04-18T02:30:54.741Z,4.80
2023-04-18T02:33:26.796Z,5.80
2023-04-18T02:35:58.774Z,5.50
2023-04-18T02:38:31.897Z,5.20
2023-04-18T02:41:04.231Z,4.40
2023-04-18T02:43:36.262Z,4.50
2023-04-18T02:46:08.695Z,4.40
2023-04-18T02:48:40.939Z,5.50
2023-04-18T02:51:13.434Z,4.70
2023-04-18T02:53:45.438Z,4.20
2023-04-18T02:56:19.378Z,5.70
2023-04-18T02:59:10.038Z,6.50
2023-04-18T03:02:12.497Z,4.90
2023-04-18T03:04:49.360Z,4.90
2023-04-18T03:07:21.426Z,5.10
2023-04-18T03:09:54.198Z,4.50
2023-04-18T03:12:32.182Z,4.30
2023-04-18T03:15:05.096Z,4.90
2023-04-18T03:17:37.354Z,4.50
2023-04-18T03:20:12.310Z,4.50
2023-04-18T03:22:44.356Z,4.30
2023-04-18T03:25:16.754Z,5.50
2023-04-18T03:27:52.122Z,4.60
2023-04-18T03:30:25.583Z,3.60
2023-04-18T03:33:02.998Z,4.20
2023-04-18T03:38:06.068Z,4.90
2023-04-18T03:40:42.351Z,4.30
2023-04-18T03:43:20.020Z,5.70
2023-04-18T03:45:52.400Z,4.20
2023-04-18T03:48:24.871Z,4.50
2023-04-18T03:50:57.316Z,5.40
2023-04-18T03:53:29.357Z,6.00
2023-04-18T03:56:01.335Z,5.20
2023-04-18T03:58:46.254Z,6.90
2023-04-18T04:01:18.612Z,6.50
2023-04-18T04:03:50.721Z,5.00
2023-04-18T04:06:23.102Z,6.80
2023-04-18T04:08:55.106Z,4.00
2023-04-18T04:11:30.004Z,4.40
2023-04-18T04:14:02.262Z,4.80
2023-04-18T04:16:39.203Z,4.40
2023-04-18T04:19:11.674Z,5.30
2023-04-18T04:21:48.708Z,5.20
2023-04-18T04:24:22.767Z,5.30
2023-04-18T04:26:56.466Z,6.80
2023-04-18T04:29:29.108Z,5.50
2023-04-18T04:32:05.869Z,5.40
2023-04-18T04:34:42.034Z,5.80
2023-04-18T04:37:18.760Z,7.00
2023-04-18T04:40:01.001Z,6.00
2023-04-18T04:43:05.636Z,5.60
2023-04-18T04:45:42.018Z,7.10
2023-04-18T04:48:14.101Z,6.20
2023-04-18T04:50:54.673Z,6.10
2023-04-18T04:53:28.038Z,8.20
2023-04-18T04:56:00.471Z,6.30
2023-04-18T04:58:32.671Z,7.30
2023-04-18T05:01:18.707Z,6.10
2023-04-18T05:03:51.681Z,6.40
2023-04-18T05:06:23.983Z,7.40
2023-04-18T05:08:57.565Z,7.10
2023-04-18T05:11:30.053Z,7.80
2023-04-18T05:14:02.121Z,8.20
2023-04-18T05:16:34.391Z,7.30
2023-04-18T05:19:06.435Z,8.70
2023-04-18T05:21:38.964Z,8.70
2023-04-18T05:24:11.815Z,8.40
2023-04-18T05:26:44.331Z,8.00
2023-04-18T05:29:16.312Z,8.30
2023-04-18T05:31:48.342Z,9.50
2023-04-18T05:34:20.547Z,7.30
2023-04-18T05:36:52.862Z,10.00
2023-04-18T05:39:24.873Z,9.10
2023-04-18T05:41:57.028Z,9.30
2023-04-18T05:44:29.470Z,12.70
2023-04-18T05:47:01.954Z,9.80
2023-04-18T05:49:34.143Z,10.40
2023-04-18T05:52:06.624Z,9.50
2023-04-18T05:54:38.616Z,9.20
2023-04-18T05:57:10.716Z,10.30
2023-04-18T05:59:42.727Z,10.40
2023-04-18T06:02:14.788Z,10.10
2023-04-18T06:04:47.263Z,8.80
2023-04-18T06:07:19.612Z,11.30
2023-04-18T06:09:51.706Z,12.40
2023-04-18T06:12:23.734Z,10.00
2023-04-18T06:14:56.026Z,12.70
2023-04-18T06:17:28.157Z,10.70
2023-04-18T06:20:00.309Z,9.20
2023-04-18T06:22:32.349Z,10.90
2023-04-18T06:25:06.212Z,12.10
2023-04-18T06:27:40.802Z,11.70
2023-04-18T06:30:13.710Z,9.90
2023-04-18T06:32:45.704Z,11.10
2023-04-18T06:35:18.017Z,10.80
2023-04-18T06:37:50.042Z,12.70
2023-04-18T06:40:22.372Z,11.30
2023-04-18T06:42:54.423Z,12.00
2023-04-18T06:45:26.470Z,8.80
2023-04-18T06:47:59.841Z,14.80
2023-04-18T06:50:32.560Z,11.40
2023-04-18T06:53:04.627Z,12.10
2023-04-18T06:55:37.140Z,11.70
2023-04-18T06:58:10.308Z,12.60
2023-04-18T07:00:42.346Z,13.40
2023-04-18T07:03:14.527Z,13.60
2023-04-18T07:05:47.055Z,15.90
2023-04-18T07:08:19.062Z,19.20
2023-04-18T07:10:51.322Z,13.40
2023-04-18T07:13:23.501Z,15.20
2023-04-18T07:15:55.934Z,12.40
2023-04-18T07:18:37.256Z,13.70
2023-04-18T07:23:40.577Z,12.30
2023-04-18T07:26:13.826Z,13.00
2023-04-18T07:28:45.833Z,13.90
2023-04-18T07:31:19.668Z,12.50
2023-04-18T07:33:51.701Z,13.70
2023-04-18T07:36:23.865Z,11.40
2023-04-18T07:38:55.918Z,14.10
2023-04-18T07:41:27.986Z,12.40
2023-04-18T07:44:01.206Z,13.10
2023-04-18T07:46:34.083Z,15.50
2023-04-18T07:49:06.441Z,14.80
2023-04-18T07:51:38.553Z,10.50
2023-04-18T07:54:11.377Z,14.30
2023-04-18T07:56:43.454Z,13.70
2023-04-18T07:59:15.870Z,12.00
2023-04-18T08:01:48.343Z,11.50
2023-04-18T08:04:20.749Z,12.90
2023-04-18T08:06:53.317Z,14.20
2023-04-18T08:09:26.283Z,11.70
2023-04-18T08:11:59.287Z,11.30
2023-04-18T08:14:31.290Z,12.20
2023-04-18T08:17:03.629Z,14.50
2023-04-18T08:19:35.619Z,13.80
2023-04-18T08:22:13.826Z,11.90
2023-04-18T08:25:01.059Z,12.20
2023-04-18T08:27:36.442Z,15.80
2023-04-18T08:30:10.717Z,10.50
2023-04-18T08:32:42.817Z,12.20
2023-04-18T08:35:14.884Z,14.00
2023-04-18T08:37:46.961Z,10.80
2023-04-18T08:40:19.726Z,8.20
2023-04-18T08:42:53.861Z,11.10
2023-04-18T08:45:26.405Z,10.40
2023-04-18T08:48:01.599Z,9.70
2023-04-18T08:50:33.698Z,9.00
2023-04-18T08:53:05.979Z,9.80
2023-04-18T08:55:38.777Z,10.20
2023-04-18T08:58:12.732Z,9.10
2023-04-18T09:00:50.519Z,12.00
2023-04-18T09:03:39.810Z,11.60
2023-04-18T09:06:16.427Z,9.20
2023-04-18T09:09:00.323Z,9.80
2023-04-18T09:11:34.612Z,8.80
2023-04-18T09:14:06.742Z,9.00
2023-04-18T09:16:48.322Z,11.30
2023-04-18T09:19:21.796Z,10.00
2023-04-18T09:22:01.414Z,9.30
2023-04-18T09:24:34.483Z,12.40
2023-04-18T09:27:15.242Z,13.20
2023-04-18T09:29:49.491Z,18.70
2023-04-18T09:32:27.195Z,10.30
2023-04-18T09:35:04.077Z,8.50
2023-04-18T09:37:36.895Z,9.90
2023-04-18T09:40:19.514Z,9.00
2023-04-18T09:42:54.590Z,9.60
2023-04-18T09:45:27.650Z,8.60
2023-04-18T09:47:59.988Z,7.50
2023-04-18T09:50:32.816Z,10.20
2023-04-18T09:53:05.160Z,9.40
2023-04-18T09:55:38.319Z,8.30
2023-04-18T09:58:11.859Z,10.30
2023-04-18T10:00:46.743Z,8.40
2023-04-18T10:03:21.465Z,12.70
2023-04-18T10:05:57.145Z,11.10
2023-04-18T10:08:30.536Z,9.90
2023-04-18T10:11:02.884Z,8.30
2023-04-18T10:13:38.373Z,8.90
2023-04-18T10:16:11.231Z,8.70
2023-04-18T10:18:45.471Z,8.80
2023-04-18T10:21:17.464Z,7.80
2023-04-18T10:23:50.520Z,8.20
2023-04-18T10:26:22.645Z,7.20
2023-04-18T10:28:57.002Z,8.70
2023-04-18T10:31:30.356Z,9.00
2023-04-18T10:34:07.401Z,11.40
2023-04-18T10:36:59.330Z,8.90
2023-04-18T10:39:31.454Z,8.10
2023-04-18T10:42:03.524Z,9.40
2023-04-18T10:44:35.583Z,11.00
2023-04-18T10:47:26.184Z,10.90
2023-04-18T10:50:06.775Z,7.60
2023-04-18T10:52:39.631Z,8.00
2023-04-18T10:55:19.412Z,7.70
2023-04-18T10:57:56.164Z,9.50
2023-04-18T11:00:29.546Z,7.30
2023-04-18T11:03:01.848Z,7.70
2023-04-18T11:05:34.272Z,8.60
2023-04-18T11:08:06.989Z,9.00
2023-04-18T11:10:39.234Z,8.80
2023-04-18T11:13:11.282Z,9.00
2023-04-18T11:15:43.850Z,6.00
2023-04-18T11:18:16.096Z,6.60
2023-04-18T11:20:51.857Z,7.30
2023-04-18T11:23:25.233Z,6.50
2023-04-18T11:25:58.411Z,6.80
2023-04-18T11:28:30.432Z,7.80
2023-04-18T11:31:04.096Z,7.10
2023-04-18T11:33:36.152Z,6.50
2023-04-18T11:36:09.926Z,7.10
2023-04-18T11:38:43.169Z,8.00
2023-04-18T11:41:18.574Z,7.40
2023-04-18T11:43:50.971Z,6.60
2023-04-18T11:46:22.996Z,5.80
2023-04-18T11:48:55.006Z,5.50
2023-04-18T11:51:38.927Z,5.70
2023-04-18T11:54:43.905Z,6.70
2023-04-18T11:57:29.829Z,7.50
2023-04-18T12:00:03.526Z,5.90
2023-04-18T12:02:47.252Z,7.30
2023-04-18T12:05:29.381Z,6.00
2023-04-18T12:08:08.603Z,7.10
2023-04-18T12:10:47.398Z,6.10
2023-04-18T12:13:20.494Z,6.80
2023-04-18T12:15:52.564Z,6.00
2023-04-18T12:18:26.145Z,5.60
2023-04-18T12:21:02.129Z,5.80
2023-04-18T12:23:37.217Z,6.20
2023-04-18T12:26:13.411Z,5.70
2023-04-18T12:28:48.156Z,7.10
2023-04-18T12:31:21.746Z,7.40
2023-04-18T12:33:54.530Z,9.40
2023-04-18T12:36:28.566Z,6.30
2023-04-18T12:39:00.662Z,5.70
2023-04-18T12:41:32.665Z,7.80
2023-04-18T12:44:04.733Z,8.40
2023-04-18T12:46:36.967Z,6.20
2023-04-18T12:49:09.424Z,8.80
2023-04-18T12:51:42.105Z,7.60
2023-04-18T12:54:14.784Z,6.60
2023-04-18T12:56:47.915Z,5.20
2023-04-18T12:59:19.998Z,5.80
2023-04-18T13:01:52.157Z,7.00
2023-04-18T13:04:24.813Z,7.00
2023-04-18T13:06:57.361Z,7.90
2023-04-18T13:09:29.489Z,5.70
2023-04-18T13:12:02.261Z,6.20
2023-04-18T13:14:34.346Z,6.20
2023-04-18T13:17:06.827Z,6.70
2023-04-18T13:19:38.873Z,16.80
2023-04-18T13:22:11.045Z,6.80
2023-04-18T13:24:43.154Z,7.60
2023-04-18T13:27:15.760Z,7.20
2023-04-18T13:29:47.769Z,29.30
2023-04-18T13:32:19.754Z,19.70
2023-04-18T13:34:52.086Z,23.40
2023-04-18T13:37:24.610Z,10.60
2023-04-18T13:39:56.646Z,11.90
2023-04-18T13:42:28.717Z,7.90
2023-04-18T13:45:00.700Z,18.80
2023-04-18T13:47:33.230Z,29.60
2023-04-18T13:50:05.736Z,13.90
2023-04-18T13:52:37.773Z,27.00
2023-04-18T13:55:12.597Z,12.90
2023-04-18T13:57:46.051Z,17.20
2023-04-18T14:00:20.326Z,18.30
2023-04-18T14:02:53.081Z,10.80
2023-04-18T14:05:25.329Z,7.50
2023-04-18T14:08:02.479Z,11.40
2023-04-18T14:10:34.721Z,8.10
2023-04-18T14:13:06.785Z,8.40
2023-04-18T14:15:38.866Z,6.30
2023-04-18T14:18:10.981Z,6.10
2023-04-18T14:20:43.646Z,9.10
2023-04-18T14:23:16.123Z,7.90
2023-04-18T14:25:48.180Z,9.30
2023-04-18T14:28:22.143Z,6.30
2023-04-18T14:30:57.955Z,6.50
2023-04-18T14:33:30.158Z,7.50
2023-04-18T14:36:03.290Z,8.20
2023-04-18T14:38:35.437Z,8.80
2023-04-18T14:41:08.270Z,7.40
2023-04-18T14:43:40.294Z,20.80
2023-04-18T14:46:16.732Z,20.40
2023-04-18T14:48:48.824Z,9.60
2023-04-18T14:51:20.839Z,11.90
2023-04-18T14:53:53.058Z,8.10
2023-04-18T14:56:25.107Z,14.30
2023-04-18T14:58:57.203Z,13.50
2023-04-18T15:01:29.327Z,11.20
2023-04-18T15:04:03.697Z,11.60
2023-04-18T15:06:36.386Z,8.60
2023-04-18T15:09:08.326Z,10.10
2023-04-18T15:11:40.551Z,9.00
2023-04-18T15:14:13.279Z,10.40
2023-04-18T15:16:45.606Z,46.40
2023-04-18T15:19:17.708Z,38.40
2023-04-18T15:21:49.776Z,83.30
2023-04-18T15:24:21.843Z,148.80
2023-04-18T15:26:53.859Z,139.10
2023-04-18T15:29:26.388Z,215.30
2023-04-18T15:31:59.138Z,34.40
2023-04-18T15:34:31.483Z,33.80
2023-04-18T15:37:04.650Z,64.90
2023-04-18T15:39:36.598Z,65.50
2023-04-18T15:42:09.051Z,59.30
2023-04-18T15:44:41.026Z,79.60
2023-04-18T15:47:12.977Z,44.40
2023-04-18T15:49:44.956Z,57.30
2023-04-18T15:52:16.975Z,53.40
2023-04-18T15:54:48.934Z,24.60
2023-04-18T15:57:21.422Z,19.60
2023-04-18T15:59:54.029Z,17.80
2023-04-18T16:02:26.271Z,13.80
2023-04-18T16:04:58.432Z,22.90
2023-04-18T16:07:30.770Z,15.10
2023-04-18T16:10:03.861Z,17.50
2023-04-18T16:12:36.126Z,18.60
2023-04-18T16:15:11.032Z,11.60
2023-04-18T16:17:43.021Z,18.50
2023-04-18T16:20:15.554Z,20.70
2023-04-18T16:22:47.910Z,15.40
2023-04-18T16:25:20.165Z,14.90
2023-04-18T16:27:52.127Z,17.30
2023-04-18T16:30:24.240Z,34.10
2023-04-18T16:32:56.604Z,30.20
2023-04-18T16:35:28.937Z,15.40
2023-04-18T16:38:00.976Z,17.40
2023-04-18T16:40:35.147Z,18.20
2023-04-18T16:43:07.180Z,22.40
2023-04-18T16:45:39.149Z,14.70
2023-04-18T16:48:11.297Z,15.30
2023-04-18T16:50:45.697Z,17.40
2023-04-18T16:53:17.862Z,12.70
2023-04-18T16:55:50.627Z,15.20
2023-04-18T16:58:23.711Z,13.30
2023-04-18T17:00:55.923Z,14.70
2023-04-18T17:03:28.148Z,15.90
2023-04-18T17:06:01.524Z,14.20
2023-04-18T17:08:34.254Z,13.00
2023-04-18T17:11:06.490Z,15.40
2023-04-18T17:13:38.451Z,12.60
2023-04-18T17:16:11.215Z,14.30
2023-04-18T17:18:43.190Z,12.10
2023-04-18T17:21:15.271Z,15.30
2023-04-18T17:23:47.648Z,14.30
2023-04-18T17:26:19.650Z,13.10
2023-04-18T17:28:51.574Z,15.70
2023-04-18T17:31:23.590Z,16.30
2023-04-18T17:33:56.321Z,20.40
2023-04-18T17:36:28.420Z,15.10
2023-04-18T17:39:06.286Z,12.70
2023-04-18T17:41:39.904Z,19.10
2023-04-18T17:44:11.928Z,24.50
2023-04-18T17:46:43.985Z,35.40
2023-04-18T17:49:16.394Z,54.80
2023-04-18T17:51:48.730Z,34.50
2023-04-18T17:54:20.888Z,57.30
2023-04-18T17:56:52.935Z,43.30
2023-04-18T17:59:25.007Z,35.60
2023-04-18T18:01:57.674Z,29.60
2023-04-18T18:04:30.491Z,23.50
2023-04-18T18:07:02.944Z,21.10
2023-04-18T18:09:35.235Z,20.00
2023-04-18T18:12:07.859Z,23.40
2023-04-18T18:14:41.433Z,19.60
2023-04-18T18:17:13.828Z,24.20
2023-04-18T18:19:46.112Z,19.70
2023-04-18T18:22:18.400Z,28.30
2023-04-18T18:24:50.657Z,66.50
2023-04-18T18:27:23.032Z,106.50
2023-04-18T18:29:55.157Z,73.60
2023-04-18T18:32:27.934Z,107.50
2023-04-18T18:34:59.934Z,149.00
2023-04-18T18:37:32.108Z,109.30
2023-04-18T18:40:06.866Z,146.50
2023-04-18T18:42:39.783Z,125.10
2023-04-18T18:45:13.391Z,89.90
2023-04-18T18:47:46.320Z,98.60
2023-04-18T18:50:18.811Z,140.60
2023-04-18T18:52:51.122Z,121.30
2023-04-18T18:55:23.574Z,65.10
2023-04-18T18:57:56.201Z,72.90
2023-04-18T19:00:28.613Z,54.60
2023-04-18T19:03:01.124Z,33.70
2023-04-18T19:05:33.767Z,30.40
2023-04-18T19:08:06.709Z,30.60
2023-04-18T19:10:38.881Z,29.00
2023-04-18T19:13:11.041Z,29.90
2023-04-18T19:15:43.130Z,23.90
2023-04-18T19:18:15.460Z,26.30
2023-04-18T19:20:47.742Z,24.00
2023-04-18T19:23:20.052Z,23.40
2023-04-18T19:25:52.391Z,18.20
2023-04-18T19:28:24.807Z,18.40
2023-04-18T19:30:57.127Z,16.90
2023-04-18T19:33:29.549Z,18.80
2023-04-18T19:36:02.231Z,17.10
2023-04-18T19:38:34.962Z,20.00
2023-04-18T19:41:07.223Z,18.10
2023-04-18T19:43:40.861Z,19.40
2023-04-18T19:46:13.527Z,16.20
2023-04-18T19:48:45.974Z,17.20
2023-04-18T19:51:18.546Z,18.00
2023-04-18T19:53:50.881Z,15.00
2023-04-18T19:56:23.085Z,16.30
2023-04-18T19:58:55.310Z,17.00
2023-04-18T20:01:27.549Z,16.40
2023-04-18T20:04:00.707Z,14.30
2023-04-18T20:06:33.362Z,15.10
2023-04-18T20:09:05.924Z,13.40
2023-04-18T20:11:37.960Z,14.00
2023-04-18T20:14:10.107Z,17.90
2023-04-18T20:16:43.089Z,17.50
2023-04-18T20:19:15.745Z,14.80
2023-04-18T20:21:48.131Z,15.50
2023-04-18T20:24:21.138Z,14.30
2023-04-18T20:26:53.273Z,15.90
2023-04-18T20:29:25.541Z,17.00
2023-04-18T20:31:57.655Z,17.10
2023-04-18T20:34:29.679Z,18.90
2023-04-18T20:37:01.716Z,15.40
2023-04-18T20:39:33.750Z,18.30
2023-04-18T20:42:05.951Z,21.90
2023-04-18T20:44:38.755Z,16.40
2023-04-18T20:47:10.773Z,17.10
2023-04-18T20:49:42.785Z,15.30
2023-04-18T20:52:14.849Z,18.30
2023-04-18T20:54:46.860Z,15.70
2023-04-18T20:57:20.138Z,21.70
2023-04-18T20:59:52.190Z,17.20
2023-04-18T21:02:24.359Z,19.30
2023-04-18T21:04:56.469Z,19.10
2023-04-18T21:07:29.826Z,19.90
2023-04-18T21:10:01.746Z,19.10
2023-04-18T21:12:33.773Z,20.70
2023-04-18T21:15:06.708Z,20.30
2023-04-18T21:17:38.743Z,20.40
2023-04-18T21:20:12.378Z,18.60
2023-04-18T21:22:44.343Z,18.40
2023-04-18T21:25:16.669Z,20.90
2023-04-18T21:27:50.774Z,20.50
2023-04-18T21:30:23.212Z,21.30
2023-04-18T21:32:55.272Z,21.80
2023-04-18T21:35:29.918Z,21.50
2023-04-18T21:38:02.058Z,20.90
2023-04-18T21:40:34.041Z,21.10
2023-04-18T21:43:06.049Z,21.50
2023-04-18T21:45:38.044Z,21.30
2023-04-18T21:48:11.619Z,23.30
2023-04-18T21:50:43.890Z,23.10
2023-04-18T21:53:15.864Z,22.10
2023-04-18T21:55:47.819Z,22.60
2023-04-18T21:58:20.186Z,22.00
2023-04-18T22:00:52.228Z,21.50
2023-04-18T22:03:24.550Z,24.00
2023-04-18T22:05:57.716Z,23.60
2023-04-18T22:08:31.160Z,24.70
2023-04-18T22:11:04.976Z,21.70
2023-04-18T22:13:37.111Z,26.30
2023-04-18T22:16:10.128Z,21.40
2023-04-18T22:18:42.157Z,25.00
2023-04-18T22:21:14.196Z,25.00
2023-04-18T22:23:46.160Z,24.10
2023-04-18T22:26:18.255Z,25.40
2023-04-18T22:28:50.349Z,25.00
2023-04-18T22:31:22.469Z,24.30
2023-04-18T22:33:54.632Z,24.90
2023-04-18T22:36:27.147Z,23.40
2023-04-18T22:38:59.137Z,25.80
2023-04-18T22:41:31.141Z,23.60
2023-04-18T22:44:03.347Z,25.00
2023-04-18T22:46:38.597Z,25.90
2023-04-18T22:49:11.019Z,25.80
2023-04-18T22:51:44.061Z,26.80
2023-04-18T22:54:16.384Z,22.80
2023-04-18T22:56:48.735Z,21.70
2023-04-18T22:59:21.044Z,23.40
2023-04-18T23:01:53.071Z,21.40
2023-04-18T23:04:25.218Z,25.90
2023-04-18T23:06:57.425Z,21.00
2023-04-18T23:09:31.852Z,21.60
2023-04-18T23:12:04.094Z,26.60
2023-04-18T23:14:36.065Z,23.30
2023-04-18T23:17:08.054Z,23.80
2023-04-18T23:19:40.161Z,26.50
2023-04-18T23:22:12.152Z,24.30
2023-04-18T23:24:44.073Z,23.80
2023-04-18T23:27:16.187Z,25.70
2023-04-18T23:29:50.496Z,24.60
2023-04-18T23:32:22.554Z,24.90
2023-04-18T23:34:54.516Z,25.40
2023-04-18T23:37:26.476Z,26.20
2023-04-18T23:39:58.464Z,25.40
2023-04-18T23:42:30.416Z,26.20
2023-04-18T23:45:03.739Z,26.40
2023-04-18T23:47:35.858Z,26.10
2023-04-18T23:50:09.507Z,25.20
2023-04-18T23:52:41.484Z,29.50
2023-04-18T23:55:13.650Z,29.10
2023-04-18T23:57:45.648Z,31.30
